Colorado Springs, CO (80921)

4:43 AM MST on March 03, 2015 (GMT -0700)
Struthers Ranch | Change Station
CLOSE
Current Station
Personal Weather Station
Location: Colorado Springs, CO
Elevation: 6867 ft
Nearby Weather Stations

Elev 6867 ft 39.04 °N, 104.83 °W | Updated 9 minutes ago

Partly Cloudy
Partly Cloudy
30.7 °F
Feels Like 25 °F
N
5.8
Wind Variable Wind from WNW

Today
High -- | Low -- °F
--% Chance of Precip.
Yesterday
High -- | Low -- °F
Precip. -- in
6:29 AM 5:53 PM
Waxing Gibbous, 95% visible
Pressure 29.70 in
Visibility 10.0 miles
Clouds Clear
Windchill 25 °F
Dew Point 12 °F
Humidity 46%
Rainfall 0.00 in
Snow Depth Not available.
UV 0 out of 12
Pollen .70 out of 12
Air Quality Not available.
Flu Activity Not available.
METAR KAFF 031058Z AUTO 25007KT 10SM CLR 01/M13 A2967 RMK AO2 SLP055 T00111131

More Conditions Fewer Conditions

Pressure 29.70 in
Visibility 10.0 miles
Clouds Clear
Windchill 25 °F
Dew Point 12 °F
Humidity 46%
Rainfall 0.00 in
Snow Depth Not available.
UV 0 out of 12
Pollen .70 out of 12
Air Quality Not available.
Flu Activity Not available.
METAR KAFF 031058Z AUTO 25007KT 10SM CLR 01/M13 A2967 RMK AO2 SLP055 T00111131

More Conditions Fewer Conditions

10-Day Weather Forecast

Almanac

Astronomy

Mar. 03, 2015 Rise Set
Actual Time
Civil Twilight
Nautical Twilight
Astronomical Twilight
Moon
Length of Visible Light
Length of Day
Tomorrow will be .
, % of the Moon is Illuminated

Today's Extremes

State Highs State Lows

Community

WunderPhotos

Upload Photos

1,802,090 photos uploaded!

WunderBlogs® & News

Nearby

Air Quality

  Air Quality AQ Index Pollutant
Not available.

Snow Depth

Station Depth Elevation

Earthquake Activity

City Distance Mag. Time & Date
Minimum magnitude displayed is 2.5.

Coastal Water Temperatures

Place Temperature

Nearby Weather Stations